Blaine, WA

8:16 AM PDT on March 24, 2017 (GMT -0700)
Central Surrey | | Change Station

Elev 360 ft 49.19 °N, 122.82 °W | Updated 5 seconds ago

Mostly Cloudy
Mostly Cloudy
41.3 °F
Feels Like 41.3 °F
N
0.0
Wind Variable Wind from SE
Gusts 0.0 mph

Today
High -- | Low -- °F
--% Chance of Precip.
Yesterday
High -- | Low -- °F
Precip. -- in
Pressure 29.77 in
Visibility 10.0 miles
Clouds Mostly Cloudy 3100 ft
Dew Point 40.8 °F
Humidity 98%
Rainfall 0.12 in
Snow Depth Not available.
7:04 AM 7:30 PM
Waning Crescent, 14% visible
METAR KBLI 241453Z 29004KT 10SM BKN031 07/06 A2974 RMK AO2 SLP080 T00720061 56003
Pressure 29.77 in
Visibility 10.0 miles
Clouds Mostly Cloudy 3100 ft
Dew Point 40.8 °F
Humidity 98%
Rainfall 0.12 in
Snow Depth Not available.
7:04 AM 7:30 PM
Waning Crescent, 14% visible
METAR KBLI 241453Z 29004KT 10SM BKN031 07/06 A2974 RMK AO2 SLP080 T00720061 56003

Get Severe Weather Alerts

Thanks for signing up!

Be on the lookout for a verification email in your inbox.

You'll start receiving the daily forecast at 8 AM.

×

10-Day Weather Forecast

Almanac

Astronomy

Mar. 24, 2017 Rise Set
Actual Time
Civil Twilight
Nautical Twilight
Astronomical Twilight
Moon
Length of Visible Light
Length of Day
Tomorrow will be .
, % of the Moon is Illuminated

Today's Extremes

State Highs State Lows

Community

WunderPhotos

Upload Photos

1,962,540 photos uploaded!

WunderBlog® & News

Nearby

Air Quality

  Air Quality AQ Index Pollutant
Not available.

Snow Depth

Station Depth Elevation

Earthquake Activity

City Distance Mag. Time & Date
Minimum magnitude displayed is 2.5.

Earthquake Activity

City Distance Mag. Time & Date
Minimum magnitude displayed is 2.5.

Coastal Water Temperatures

Place Temperature

Stations

Nearby Weather Stations

Station Location Temp. Windchill Dew Point Humidity Wind Precip. Elev Updated Type
                   

Watches & Warnings

There are currently no watches in effect.